Time;durP1;ratioP1;P1;durP2;ratioP2;P2;SDS_P1;SDS_P2;PMS_P1;PMS_P2;Temp;Humidity;BMP_temperature;BMP_pressure;BME280_temperature;BME280_humidity;BME280_pressure;Samples;Min_cycle;Max_cycle;Signal;HPM_P1;HPM_P2
2021/12/15 00:01:20;;;;;;;26.73;16.10;;;;;;;5.93;100.00;99510.31;5105056;28;20236;-64
2021/12/15 00:03:46;;;;;;;29.83;16.43;;;;;;;5.91;100.00;99517.38;5103139;28;20748;-63
2021/12/15 00:06:17;;;;;;;26.73;15.60;;;;;;;5.91;100.00;99512.13;5100629;28;20663;-64
2021/12/15 00:08:46;;;;;;;29.33;15.90;;;;;;;5.92;100.00;99511.22;5111167;28;20674;-63
2021/12/15 00:11:14;;;;;;;30.10;16.73;;;;;;;5.96;100.00;99515.50;5112653;28;20236;-64
2021/12/15 00:13:43;;;;;;;26.07;15.43;;;;;;;5.99;100.00;99510.13;5109836;28;20224;-63
2021/12/15 00:16:11;;;;;;;24.73;14.67;;;;;;;6.01;100.00;99508.34;5099920;28;20679;-64
2021/12/15 00:18:41;;;;;;;26.57;14.90;;;;;;;6.02;100.00;99507.44;5104172;28;20671;-65
2021/12/15 00:21:09;;;;;;;28.17;15.33;;;;;;;6.03;100.00;99511.78;5105112;28;20223;-64
2021/12/15 00:23:36;;;;;;;25.37;14.90;;;;;;;6.02;100.00;99512.69;5104359;28;20219;-65
2021/12/15 00:26:02;;;;;;;25.93;14.80;;;;;;;6.01;100.00;99499.59;5106774;28;20216;-64
2021/12/15 00:28:31;;;;;;;31.07;16.10;;;;;;;6.02;100.00;99514.44;5106049;28;20217;-64
2021/12/15 00:30:58;;;;;;;28.03;16.10;;;;;;;5.97;100.00;99511.09;5105835;28;20213;-64
2021/12/15 00:33:25;;;;;;;34.87;18.13;;;;;;;5.92;100.00;99508.59;5108580;28;20216;-64
2021/12/15 00:35:52;;;;;;;34.43;18.03;;;;;;;5.90;100.00;99510.41;5109266;28;20674;-64
2021/12/15 00:38:18;;;;;;;36.73;18.70;;;;;;;5.89;100.00;99518.31;5106281;28;20296;-64
2021/12/15 00:40:45;;;;;;;38.73;18.37;;;;;;;5.91;100.00;99517.38;5105304;28;20224;-64
2021/12/15 00:43:11;;;;;;;38.53;19.23;;;;;;;5.96;100.00;99518.13;5106529;28;20310;-64
2021/12/15 00:45:39;;;;;;;34.63;17.97;;;;;;;5.99;100.00;99518.00;5109043;28;20583;-64
2021/12/15 00:48:06;;;;;;;31.83;17.83;;;;;;;6.03;100.00;99519.66;5106053;28;20212;-64
2021/12/15 00:50:35;;;;;;;36.30;18.77;;;;;;;6.03;100.00;99521.41;5104769;28;20218;-64
2021/12/15 00:53:03;;;;;;;36.73;18.70;;;;;;;5.99;100.00;99514.53;5108183;28;20212;-64
2021/12/15 00:55:31;;;;;;;33.97;19.17;;;;;;;5.96;100.00;99520.75;5108413;28;20695;-64
2021/12/15 00:57:58;;;;;;;37.13;19.47;;;;;;;5.98;100.00;99524.16;5105778;28;20215;-64
2021/12/15 01:00:28;;;;;;;36.47;20.07;;;;;;;5.97;100.00;99527.69;5104840;28;20214;-64
2021/12/15 01:02:57;;;;;;;38.30;19.07;;;;;;;5.95;100.00;99529.53;5105449;28;20234;-64
2021/12/15 01:05:26;;;;;;;42.37;19.57;;;;;;;5.94;100.00;99530.44;5104666;28;20218;-64
2021/12/15 01:07:54;;;;;;;37.37;18.77;;;;;;;5.96;100.00;99526.00;5100591;28;20238;-64
2021/12/15 01:10:29;;;;;;;45.27;20.13;;;;;;;5.95;100.00;99520.78;5106721;28;20587;-64
2021/12/15 01:21:10;;;;;;;35.57;17.80;;;;;;;5.96;100.00;99525.13;5115263;28;20219;-64
2021/12/15 01:23:37;;;;;;;33.73;16.77;;;;;;;6.00;100.00;99527.63;5100342;28;20260;-64
2021/12/15 01:26:07;;;;;;;32.03;16.10;;;;;;;6.03;100.00;99524.91;5107813;28;20213;-64
2021/12/15 01:28:34;;;;;;;30.90;16.30;;;;;;;6.06;100.00;99523.94;5107385;28;20627;-64
2021/12/15 01:31:01;;;;;;;29.37;15.87;;;;;;;6.08;100.00;99536.13;5114998;28;20221;-64
2021/12/15 01:33:30;;;;;;;26.43;14.27;;;;;;;6.11;100.00;99541.28;5100052;28;20217;-64
2021/12/15 01:35:59;;;;;;;27.90;15.17;;;;;;;6.12;100.00;99529.88;5106237;28;20220;-64
2021/12/15 01:38:28;;;;;;;28.23;15.33;;;;;;;6.14;100.00;99538.56;5106168;28;20289;-64
2021/12/15 01:40:56;;;;;;;24.70;14.40;;;;;;;6.13;100.00;99539.47;5114992;28;20210;-64
2021/12/15 01:43:35;;;;;;;26.67;14.60;;;;;;;6.13;100.00;99542.09;5114599;28;20243;-64
2021/12/15 01:48:57;;;;;;;25.63;14.00;;;;;;;6.15;100.00;99549.91;5114736;28;20575;-64
2021/12/15 01:51:24;;;;;;;29.33;16.50;;;;;;;6.15;100.00;99542.03;5114734;28;20220;-64
2021/12/15 01:53:51;;;;;;;35.60;17.07;;;;;;;6.13;100.00;99533.34;5114132;28;20215;-64
2021/12/15 01:56:18;;;;;;;33.63;17.90;;;;;;;6.13;100.00;99533.34;5114900;27;20215;-64
2021/12/15 01:58:44;;;;;;;33.17;18.10;;;;;;;6.16;100.00;99541.16;5114713;28;20224;-64
2021/12/15 02:01:11;;;;;;;34.03;17.70;;;;;;;6.16;100.00;99533.28;5113369;28;20213;-64
2021/12/15 02:03:40;;;;;;;33.73;18.30;;;;;;;6.15;100.00;99535.03;5113517;28;20237;-64
2021/12/15 02:06:09;;;;;;;30.07;17.77;;;;;;;6.15;100.00;99537.66;5114265;28;20213;-64
2021/12/15 02:08:37;;;;;;;34.87;17.67;;;;;;;6.16;100.00;99536.75;5112767;28;20213;-64
2021/12/15 02:11:04;;;;;;;35.23;18.00;;;;;;;6.14;100.00;99541.19;5114230;28;20237;-64
2021/12/15 02:13:31;;;;;;;31.57;17.63;;;;;;;6.14;100.00;99530.69;5113719;28;20299;-64
2021/12/15 02:16:01;;;;;;;32.13;17.27;;;;;;;6.14;100.00;99525.44;5114175;28;20218;-64
2021/12/15 02:18:30;;;;;;;32.97;17.93;;;;;;;6.12;100.00;99524.63;5114340;28;20224;-64
2021/12/15 02:21:02;;;;;;;37.40;18.70;;;;;;;6.12;100.00;99524.63;5113970;28;20216;-64
2021/12/15 02:23:35;;;;;;;34.93;19.60;;;;;;;6.13;100.00;99528.97;5113209;28;20710;-64
2021/12/15 02:26:07;;;;;;;32.53;18.30;;;;;;;6.12;100.00;99529.03;5114355;28;20212;-65
2021/12/15 02:28:33;;;;;;;33.30;17.77;;;;;;;6.12;100.00;99535.13;5097887;28;20212;-64
2021/12/15 02:31:09;;;;;;;32.90;18.60;;;;;;;6.11;100.00;99532.56;5106703;28;20232;-64
2021/12/15 02:33:48;;;;;;;31.73;17.27;;;;;;;6.10;100.00;99542.19;5107218;28;20218;-64
2021/12/15 02:39:04;;;;;;;31.07;16.37;;;;;;;6.14;100.00;99535.94;5112903;28;20210;-64
2021/12/15 02:41:32;;;;;;;26.97;15.57;;;;;;;6.15;100.00;99537.66;5113565;28;20270;-64
2021/12/15 02:44:02;;;;;;;27.13;15.87;;;;;;;6.14;100.00;99535.94;5113786;28;20607;-64
2021/12/15 02:46:32;;;;;;;29.73;16.07;;;;;;;6.16;100.00;99534.13;5113646;28;20224;-64
2021/12/15 02:48:59;;;;;;;30.40;17.40;;;;;;;6.15;100.00;99526.28;5112407;28;20217;-64
2021/12/15 02:51:28;;;;;;;30.20;17.27;;;;;;;6.13;100.00;99528.97;5113765;28;20568;-64
2021/12/15 02:53:55;;;;;;;35.10;18.27;;;;;;;6.12;100.00;99527.25;5111963;28;20234;-64
2021/12/15 02:56:22;;;;;;;34.93;18.17;;;;;;;6.11;100.00;99525.53;5113806;28;20223;-64
2021/12/15 02:58:53;;;;;;;34.90;17.93;;;;;;;6.12;100.00;99519.38;5112765;28;20218;-64
2021/12/15 03:01:29;;;;;;;35.93;19.33;;;;;;;6.13;100.00;99525.50;5113241;28;20270;-64
2021/12/15 03:04:16;;;;;;;33.67;18.87;;;;;;;6.11;100.00;99525.53;5098520;28;20251;-64
2021/12/15 03:06:52;;;;;;;32.00;17.57;;;;;;;6.12;100.00;99535.13;5103058;28;20211;-64
2021/12/15 03:17:30;;;;;;;34.07;17.67;;;;;;;6.10;100.00;99539.56;5113052;28;20266;-64
2021/12/15 03:19:57;;;;;;;36.70;19.17;;;;;;;6.12;100.00;99536.91;5112021;28;20573;-64
2021/12/15 03:22:25;;;;;;;34.70;18.50;;;;;;;6.16;100.00;99543.78;5111967;28;20230;-64
2021/12/15 03:24:52;;;;;;;36.63;19.57;;;;;;;6.17;100.00;99546.34;5113209;28;20244;-64
2021/12/15 03:27:24;;;;;;;32.30;18.73;;;;;;;6.18;100.00;99548.06;5113032;28;20222;-64
2021/12/15 03:35:34;;;;;;;34.07;17.93;;;;;;;6.18;100.00;99542.81;5102279;28;20279;-63
2021/12/15 03:38:02;;;;;;;32.47;17.33;;;;;;;6.17;100.00;99541.09;5103106;28;20213;-64
2021/12/15 03:40:37;;;;;;;28.53;16.10;;;;;;;6.18;100.00;99540.19;5105484;28;20592;-64
2021/12/15 03:43:08;;;;;;;32.17;17.40;;;;;;;6.17;100.00;99545.50;5103303;28;20249;-64
2021/12/15 03:45:41;;;;;;;35.00;19.10;;;;;;;6.16;100.00;99549.88;5101937;28;20214;-64
2021/12/15 03:48:12;;;;;;;31.20;17.03;;;;;;;6.17;100.00;99546.34;5103013;28;20218;-64
2021/12/15 03:50:38;;;;;;;31.47;16.60;;;;;;;6.17;100.00;99543.72;5105602;28;20217;-64
2021/12/15 03:53:07;;;;;;;32.40;17.63;;;;;;;6.17;100.00;99540.25;5108611;28;20214;-64
2021/12/15 03:55:38;;;;;;;30.33;17.50;;;;;;;6.15;100.00;99544.66;5101888;28;20219;-63
2021/12/15 03:58:09;;;;;;;29.97;15.80;;;;;;;6.13;100.00;99549.97;5104947;28;20219;-63
2021/12/15 04:00:39;;;;;;;29.47;15.87;;;;;;;6.14;100.00;99548.19;5110290;28;20210;-63
2021/12/15 04:03:08;;;;;;;32.17;17.33;;;;;;;6.17;100.00;99546.34;5116604;28;20714;-64
2021/12/15 04:05:34;;;;;;;32.60;16.53;;;;;;;6.15;100.00;99553.41;5116035;28;20314;-63
2021/12/15 04:08:01;;;;;;;32.93;17.20;;;;;;;6.17;100.00;99550.75;5108849;28;20224;-64
2021/12/15 04:10:29;;;;;;;35.20;18.13;;;;;;;6.14;100.00;99554.31;5108283;28;20217;-64
2021/12/15 04:12:56;;;;;;;34.17;17.70;;;;;;;6.15;100.00;99550.78;5103700;28;20248;-63
2021/12/15 04:15:28;;;;;;;30.30;17.77;;;;;;;6.17;100.00;99546.34;5107138;28;20211;-64
2021/12/15 04:17:57;;;;;;;32.20;16.30;;;;;;;6.16;100.00;99555.13;5109626;27;20220;-64
2021/12/15 04:20:27;;;;;;;37.50;19.67;;;;;;;6.17;100.00;99548.97;5107673;28;20213;-64
2021/12/15 04:22:54;;;;;;;34.83;18.83;;;;;;;6.17;100.00;99550.75;5105434;28;20246;-64
2021/12/15 04:25:24;;;;;;;31.57;19.03;;;;;;;6.19;100.00;99549.81;5108137;28;20222;-64
2021/12/15 04:27:59;;;;;;;36.87;19.17;;;;;;;6.18;100.00;99558.56;5109484;28;20213;-64
2021/12/15 04:30:27;;;;;;;34.17;19.20;;;;;;;6.18;100.00;99557.72;5105349;28;20220;-64
2021/12/15 04:32:56;;;;;;;33.73;17.67;;;;;;;6.19;100.00;99557.69;5105134;28;20278;-64
2021/12/15 04:35:23;;;;;;;31.60;17.73;;;;;;;6.17;100.00;99562.09;5109123;28;20213;-64
2021/12/15 04:37:51;;;;;;;33.40;18.13;;;;;;;6.18;100.00;99558.56;5109074;28;20224;-64
2021/12/15 04:40:20;;;;;;;37.60;20.33;;;;;;;6.18;100.00;99558.56;5099745;28;20206;-63
2021/12/15 04:42:46;;;;;;;29.87;16.97;;;;;;;6.20;100.00;99556.78;5108590;28;20239;-63
2021/12/15 04:45:18;;;;;;;29.10;16.63;;;;;;;6.19;100.00;99560.31;5107899;28;20299;-64
2021/12/15 04:47:45;;;;;;;27.57;15.73;;;;;;;6.20;100.00;99563.78;5116253;28;20239;-64
2021/12/15 04:50:12;;;;;;;26.83;15.30;;;;;;;6.19;100.00;99557.69;5115997;28;20213;-64
2021/12/15 04:52:39;;;;;;;27.00;15.47;;;;;;;6.17;100.00;99563.88;5115181;28;20221;-63
2021/12/15 04:55:07;;;;;;;28.63;16.50;;;;;;;6.13;100.00;99555.22;5115982;28;20244;-64
2021/12/15 04:57:35;;;;;;;31.30;16.77;;;;;;;6.16;100.00;99563.00;5115550;27;20220;-63
2021/12/15 05:00:04;;;;;;;33.10;18.27;;;;;;;6.14;100.00;99556.06;5115621;28;20215;-63
2021/12/15 05:02:32;;;;;;;32.40;18.40;;;;;;;6.13;100.00;99549.97;5114937;28;20299;-64
2021/12/15 05:04:58;;;;;;;29.73;17.50;;;;;;;6.16;100.00;99559.53;5113717;28;20216;-64
2021/12/15 05:07:25;;;;;;;33.47;18.63;;;;;;;6.18;100.00;99555.09;5108143;28;20309;-64
2021/12/15 05:09:53;;;;;;;31.10;18.53;;;;;;;6.17;100.00;99566.50;5104674;28;20304;-63
2021/12/15 05:12:22;;;;;;;32.37;18.03;;;;;;;6.19;100.00;99565.56;5105287;28;20241;-64
2021/12/15 05:14:50;;;;;;;34.23;18.83;;;;;;;6.21;100.00;99562.88;5115565;28;20220;-63
2021/12/15 05:17:17;;;;;;;30.60;18.27;;;;;;;6.21;100.00;99571.63;5115488;28;20220;-64
2021/12/15 05:19:47;;;;;;;34.47;18.97;;;;;;;6.21;100.00;99568.97;5115476;28;20299;-64
2021/12/15 05:22:14;;;;;;;32.03;18.40;;;;;;;6.21;100.00;99574.25;5114284;28;20213;-64
2021/12/15 05:24:42;;;;;;;28.23;17.83;;;;;;;6.22;100.00;99573.31;5115022;28;20265;-64
2021/12/15 05:27:11;;;;;;;27.20;17.13;;;;;;;6.22;100.00;99575.13;5115172;28;20215;-64
2021/12/15 05:29:39;;;;;;;29.00;16.80;;;;;;;6.20;100.00;99577.78;5115070;28;20227;-64
2021/12/15 05:32:08;;;;;;;28.47;15.80;;;;;;;6.20;100.00;99574.28;5112929;28;20215;-63
2021/12/15 05:34:36;;;;;;;28.07;16.70;;;;;;;6.14;100.00;99572.69;5115214;28;20309;-64
2021/12/15 05:37:05;;;;;;;26.73;15.93;;;;;;;6.09;100.00;99574.59;5115129;28;20213;-64
2021/12/15 05:39:32;;;;;;;26.33;15.63;;;;;;;6.12;100.00;99578.91;5114725;28;20683;-64
2021/12/15 05:41:59;;;;;;;27.33;15.57;;;;;;;6.09;100.00;99592.09;5113868;28;20688;-64
2021/12/15 05:44:26;;;;;;;24.40;14.83;;;;;;;6.09;100.00;99590.34;5115071;28;20236;-64
2021/12/15 05:46:56;;;;;;;26.40;15.07;;;;;;;6.10;100.00;99580.72;5114995;28;20212;-64
2021/12/15 05:49:23;;;;;;;32.70;17.27;;;;;;;6.10;100.00;99586.81;5114717;28;20582;-64
2021/12/15 05:51:50;;;;;;;28.63;17.00;;;;;;;6.09;100.00;99590.34;5113743;28;20712;-63
2021/12/15 05:54:18;;;;;;;30.43;16.97;;;;;;;6.11;100.00;99593.78;5114680;28;20217;-64
2021/12/15 05:56:45;;;;;;;30.43;16.97;;;;;;;6.13;100.00;99604.22;5114743;28;20218;-64
2021/12/15 05:59:11;;;;;;;26.07;15.97;;;;;;;6.12;100.00;99605.97;5112674;28;20300;-64
2021/12/15 06:01:39;;;;;;;26.30;15.87;;;;;;;6.12;100.00;99603.34;5113726;28;20699;-64
2021/12/15 06:04:06;;;;;;;27.73;14.93;;;;;;;6.12;100.00;99602.53;5114553;28;20246;-64
2021/12/15 06:06:33;;;;;;;25.77;15.63;;;;;;;6.12;100.00;99610.41;5112774;28;20671;-64
2021/12/15 06:09:00;;;;;;;23.10;14.33;;;;;;;6.12;100.00;99613.84;5102663;28;20213;-64
2021/12/15 06:11:28;;;;;;;25.57;15.40;;;;;;;6.13;100.00;99607.72;5105385;28;20238;-64
2021/12/15 06:13:55;;;;;;;28.00;16.40;;;;;;;6.11;100.00;99609.53;5107349;28;20225;-64
2021/12/15 06:16:24;;;;;;;25.33;16.33;;;;;;;6.11;100.00;99619.19;5105533;28;20220;-64
2021/12/15 06:18:52;;;;;;;27.23;16.13;;;;;;;6.08;100.00;99620.13;5103332;28;20217;-64
2021/12/15 06:21:20;;;;;;;23.20;14.63;;;;;;;6.10;100.00;99612.22;5105307;28;20243;-64
2021/12/15 06:23:47;;;;;;;24.83;14.10;;;;;;;6.08;100.00;99612.25;5104626;28;20237;-66
2021/12/15 06:26:15;;;;;;;26.67;15.90;;;;;;;6.09;100.00;99619.22;5105473;28;20267;-64
2021/12/15 06:28:44;;;;;;;24.53;14.60;;;;;;;6.10;100.00;99615.69;5108198;28;20212;-64
2021/12/15 06:31:13;;;;;;;21.60;13.47;;;;;;;6.11;100.00;99609.53;5105231;28;20211;-64
2021/12/15 06:33:42;;;;;;;26.83;15.43;;;;;;;6.12;100.00;99615.63;5103122;28;20223;-64
2021/12/15 06:36:10;;;;;;;24.57;15.60;;;;;;;6.10;100.00;99607.81;5105408;28;20581;-64
2021/12/15 06:38:41;;;;;;;20.83;13.60;;;;;;;6.09;100.00;99611.34;5106459;28;20751;-64
2021/12/15 06:41:10;;;;;;;25.03;14.90;;;;;;;6.09;100.00;99621.84;5103862;28;20570;-64
2021/12/15 06:43:39;;;;;;;23.40;14.50;;;;;;;6.10;100.00;99630.59;5102623;28;20236;-64
2021/12/15 06:46:25;;;;;;;23.20;13.90;;;;;;;6.06;100.00;99627.19;5105887;28;20217;-64
2021/12/15 06:57:34;;;;;;;23.37;13.63;;;;;;;6.05;100.00;99630.69;5106245;28;20215;-63
2021/12/15 07:00:01;;;;;;;23.30;14.33;;;;;;;6.04;100.00;99634.22;5099152;28;20278;-64
2021/12/15 07:02:29;;;;;;;21.93;13.73;;;;;;;6.05;100.00;99646.44;5105573;28;20685;-64
2021/12/15 07:04:56;;;;;;;23.80;14.43;;;;;;;6.05;100.00;99645.59;5101961;28;20286;-64
2021/12/15 07:07:22;;;;;;;22.50;13.43;;;;;;;6.06;100.00;99642.94;5101713;28;20209;-64
2021/12/15 07:09:49;;;;;;;21.67;13.47;;;;;;;6.06;100.00;99645.56;5113134;28;20680;-64
2021/12/15 07:12:16;;;;;;;24.30;13.33;;;;;;;6.04;100.00;99649.97;5112790;28;20237;-64
2021/12/15 07:14:42;;;;;;;22.80;13.97;;;;;;;6.06;100.00;99655.19;5105222;28;20286;-64
2021/12/15 07:17:15;;;;;;;21.67;13.27;;;;;;;6.05;100.00;99659.56;5111472;28;20212;-64
2021/12/15 07:20:04;;;;;;;23.03;13.50;;;;;;;6.07;100.00;99659.53;5105841;28;20305;-64
2021/12/15 07:22:36;;;;;;;20.43;12.83;;;;;;;6.10;100.00;99665.53;5105347;28;20289;-63
2021/12/15 07:25:06;;;;;;;22.17;13.20;;;;;;;6.13;100.00;99673.34;5105695;28;20250;-64
2021/12/15 07:27:33;;;;;;;20.47;13.27;;;;;;;6.11;100.00;99677.75;5102130;28;20209;-64
2021/12/15 07:29:59;;;;;;;20.20;12.40;;;;;;;6.09;100.00;99679.59;5102630;28;20671;-64
2021/12/15 07:32:26;;;;;;;22.37;13.17;;;;;;;6.11;100.00;99680.38;5105865;28;20212;-64
2021/12/15 07:34:54;;;;;;;19.67;12.97;;;;;;;6.09;100.00;99682.22;5105543;28;20213;-64
2021/12/15 07:37:20;;;;;;;21.73;13.43;;;;;;;6.11;100.00;99693.50;5101663;28;20209;-63
2021/12/15 07:39:54;;;;;;;22.73;13.63;;;;;;;6.12;100.00;99694.38;5102458;28;20216;-64
2021/12/15 07:42:30;;;;;;;21.83;13.23;;;;;;;6.14;100.00;99698.69;5104264;28;20220;-64
2021/12/15 07:44:57;;;;;;;20.67;13.00;;;;;;;6.17;100.00;99692.50;5105272;28;20240;-64
2021/12/15 07:47:23;;;;;;;21.50;13.40;;;;;;;6.17;100.00;99692.50;5105578;28;20224;-64
2021/12/15 07:49:50;;;;;;;23.77;14.13;;;;;;;6.18;100.00;99695.06;5103769;28;20235;-64
2021/12/15 07:52:18;;;;;;;25.20;13.90;;;;;;;6.18;100.00;99687.19;5101473;28;20213;-64
2021/12/15 07:54:44;;;;;;;20.77;13.10;;;;;;;6.20;100.00;99697.66;5103510;28;20217;-64
2021/12/15 07:57:16;;;;;;;20.37;12.80;;;;;;;6.21;100.00;99696.75;5105476;28;20212;-64
2021/12/15 07:59:43;;;;;;;20.90;12.63;;;;;;;6.21;100.00;99695.00;5103244;28;20238;-64
2021/12/15 08:02:10;;;;;;;21.93;13.33;;;;;;;6.26;100.00;99698.38;5101599;28;20215;-64
2021/12/15 08:04:37;;;;;;;20.80;12.93;;;;;;;6.26;100.00;99708.00;5103702;28;20237;-64
2021/12/15 08:07:04;;;;;;;20.00;13.27;;;;;;;6.27;100.00;99709.72;5106274;28;20232;-64
2021/12/15 08:09:32;;;;;;;21.43;13.47;;;;;;;6.32;100.00;99708.69;5101779;28;20215;-64
2021/12/15 08:11:58;;;;;;;20.93;13.53;;;;;;;6.34;100.00;99701.63;5105376;28;20724;-64
2021/12/15 08:14:26;;;;;;;22.07;13.73;;;;;;;6.38;100.00;99712.91;5103454;28;20216;-64
2021/12/15 08:16:52;;;;;;;23.07;13.80;;;;;;;6.41;100.00;99704.97;5101778;28;20213;-64
2021/12/15 08:19:19;;;;;;;21.60;13.33;;;;;;;6.43;100.00;99711.91;5101081;28;20224;-63
2021/12/15 08:21:46;;;;;;;22.77;13.77;;;;;;;6.43;100.00;99711.91;5103549;28;20311;-63
2021/12/15 08:24:14;;;;;;;19.07;12.60;;;;;;;6.48;100.00;99712.59;5102275;28;20701;-63
2021/12/15 08:26:42;;;;;;;20.67;13.77;;;;;;;6.52;100.00;99716.00;5100332;28;20220;-63
2021/12/15 08:29:08;;;;;;;20.07;12.93;;;;;;;6.50;100.00;99717.81;5100132;28;20214;-63
2021/12/15 08:31:35;;;;;;;22.33;13.23;;;;;;;6.49;100.00;99719.63;5108734;28;20214;-63
2021/12/15 08:34:02;;;;;;;18.50;12.67;;;;;;;6.50;100.00;99718.72;5106649;28;20304;-63
2021/12/15 08:36:28;;;;;;;20.43;13.20;;;;;;;6.53;100.00;99721.22;5106825;28;20316;-64
2021/12/15 08:38:55;;;;;;;22.37;14.30;;;;;;;6.57;100.00;99720.25;5108943;28;20216;-63
2021/12/15 08:41:26;;;;;;;20.87;12.97;;;;;;;6.57;100.00;99725.50;5109079;28;20689;-64
2021/12/15 08:43:55;;;;;;;18.40;12.30;;;;;;;6.60;100.00;99730.66;5106352;28;20215;-64
2021/12/15 08:46:24;;;;;;;17.47;11.90;;;;;;;6.66;100.00;99734.91;5109437;28;20232;-64
2021/12/15 08:48:52;;;;;;;17.87;12.47;;;;;;;6.69;100.00;99735.66;5113179;28;20220;-64
2021/12/15 08:51:25;;;;;;;17.33;12.60;;;;;;;6.74;100.00;99739.03;5112530;28;20218;-63
2021/12/15 08:53:53;;;;;;;19.10;13.23;;;;;;;6.78;100.00;99740.66;5110068;28;20252;-63
2021/12/15 08:56:19;;;;;;;17.70;12.87;;;;;;;6.81;100.00;99735.31;5113292;28;20296;-63
2021/12/15 08:58:46;;;;;;;18.40;13.23;;;;;;;6.85;100.00;99736.94;5111801;28;20210;-64
2021/12/15 09:01:14;;;;;;;18.67;13.03;;;;;;;6.87;100.00;99729.88;5112704;28;20219;-64
2021/12/15 09:03:42;;;;;;;16.23;12.10;;;;;;;6.90;100.00;99731.56;5108433;27;20240;-64
2021/12/15 09:06:09;;;;;;;11.60;8.80;;;;;;;6.89;100.00;99733.31;5107488;28;20236;-64
2021/12/15 09:08:36;;;;;;;12.37;9.30;;;;;;;6.89;100.00;99733.31;5100515;28;20210;-64
2021/12/15 09:11:05;;;;;;;11.67;9.30;;;;;;;6.84;100.00;99732.59;5108802;28;20236;-63
2021/12/15 09:13:32;;;;;;;11.43;8.73;;;;;;;6.85;100.00;99733.47;5107087;28;20213;-64
2021/12/15 09:16:01;;;;;;;13.63;10.03;;;;;;;6.86;100.00;99732.56;5105121;28;20679;-64
2021/12/15 09:18:29;;;;;;;13.10;9.73;;;;;;;6.87;100.00;99735.16;5107647;28;20343;-63
2021/12/15 09:20:56;;;;;;;10.60;8.90;;;;;;;6.93;100.00;99729.72;5107524;28;20228;-63
2021/12/15 09:23:22;;;;;;;13.63;10.10;;;;;;;6.93;100.00;99745.47;5107404;28;20224;-64
2021/12/15 09:25:51;;;;;;;12.97;9.83;;;;;;;6.94;100.00;99744.56;5104898;28;20264;-64
2021/12/15 09:28:19;;;;;;;14.60;10.10;;;;;;;6.95;100.00;99746.28;5106331;28;20220;-63
2021/12/15 09:30:48;;;;;;;14.10;10.70;;;;;;;7.02;100.00;99750.44;5112618;28;20213;-64
2021/12/15 09:33:18;;;;;;;12.47;9.83;;;;;;;6.96;100.00;99745.38;5109048;28;20221;-64
2021/12/15 09:35:47;;;;;;;12.93;10.30;;;;;;;6.98;100.00;99750.59;5111805;28;20216;-64
2021/12/15 09:38:14;;;;;;;13.67;9.90;;;;;;;6.98;100.00;99737.44;5112209;28;20217;-64
2021/12/15 09:40:41;;;;;;;12.83;9.70;;;;;;;7.04;100.00;99747.78;5111898;28;20218;-64
2021/12/15 09:43:09;;;;;;;13.60;10.13;;;;;;;7.08;100.00;99749.44;5108590;28;20618;-64
2021/12/15 09:45:42;;;;;;;14.07;10.33;;;;;;;7.12;100.00;99751.03;5112078;28;20237;-64
2021/12/15 09:57:07;;;;;;;10.80;8.20;;;;;;;7.13;100.00;99752.75;5102102;28;20221;-64
2021/12/15 10:05:17;;;;;;;10.13;7.23;;;;;;;7.14;100.00;99762.38;5104613;28;20237;-63
2021/12/15 10:11:10;;;;;;;9.23;7.07;;;;;;;7.08;100.00;99763.41;5084079;28;20300;-64
2021/12/15 10:19:19;;;;;;;10.93;8.20;;;;;;;7.14;100.00;99754.50;5108293;28;20220;-63
2021/12/15 10:22:03;;;;;;;9.47;6.47;;;;;;;7.20;100.00;99757.78;5109923;28;20221;-63
2021/12/15 10:24:36;;;;;;;9.07;6.60;;;;;;;7.17;100.00;99744.75;5104502;28;20271;-63
2021/12/15 10:27:06;;;;;;;8.23;6.40;;;;;;;7.17;100.00;99750.00;5104917;28;20217;-63
2021/12/15 10:29:33;;;;;;;10.17;6.97;;;;;;;7.17;100.00;99736.88;5102313;28;20214;-63
2021/12/15 10:32:03;;;;;;;10.93;7.03;;;;;;;7.23;100.00;99741.94;5108876;28;20206;-64
2021/12/15 10:34:30;;;;;;;9.03;6.80;;;;;;;7.21;100.00;99746.38;5109203;28;20217;-64
2021/12/15 10:36:58;;;;;;;8.53;7.10;;;;;;;7.21;100.00;99751.63;5111206;28;20282;-63
2021/12/15 10:39:25;;;;;;;8.33;6.30;;;;;;;7.26;100.00;99739.19;5110735;28;20225;-63
2021/12/15 10:41:55;;;;;;;6.63;5.47;;;;;;;7.24;100.00;99743.66;5108807;28;20209;-63
2021/12/15 10:44:24;;;;;;;9.07;6.83;;;;;;;7.24;100.00;99741.03;5109965;28;20691;-63
2021/12/15 10:46:53;;;;;;;8.97;7.07;;;;;;;7.22;100.00;99747.25;5110819;28;20217;-63
2021/12/15 10:49:22;;;;;;;8.17;6.27;;;;;;;7.27;100.00;99732.19;5108203;28;20216;-62
2021/12/15 10:51:53;;;;;;;7.50;6.00;;;;;;;7.29;100.00;99739.13;5108057;28;20739;-63
2021/12/15 10:54:23;;;;;;;8.10;6.60;;;;;;;7.28;100.00;99732.97;5105349;28;20273;-64
2021/12/15 10:56:52;;;;;;;9.30;6.80;;;;;;;7.27;100.00;99740.91;5109640;28;20308;-63
2021/12/15 10:59:21;;;;;;;7.90;6.60;;;;;;;7.24;100.00;99733.97;5110531;28;20584;-64
2021/12/15 11:01:55;;;;;;;8.63;7.00;;;;;;;7.18;100.00;99725.44;5103470;28;20693;-63
2021/12/15 11:04:44;;;;;;;8.30;6.83;;;;;;;7.17;100.00;99728.97;5105913;28;20296;-63
2021/12/15 11:07:22;;;;;;;8.77;7.00;;;;;;;7.10;100.00;99737.97;5096195;28;20305;-63
2021/12/15 11:09:52;;;;;;;8.90;6.90;;;;;;;7.12;100.00;99728.25;5104508;28;20210;-65
2021/12/15 11:12:22;;;;;;;9.13;7.20;;;;;;;7.15;100.00;99733.41;5105239;28;20706;-63
2021/12/15 11:14:54;;;;;;;10.03;7.93;;;;;;;7.08;100.00;99734.50;5102335;28;20206;-63
2021/12/15 11:17:24;;;;;;;5.67;4.40;;;;;;;7.09;100.00;99730.94;5102870;28;20667;-63
2021/12/15 11:19:58;;;;;;;5.17;4.67;;;;;;;7.06;100.00;99731.06;5105428;28;20210;-63
2021/12/15 11:22:33;;;;;;;6.10;4.73;;;;;;;7.03;100.00;99733.75;5110751;28;20210;-63
2021/12/15 11:25:01;;;;;;;4.23;3.83;;;;;;;6.99;100.00;99724.28;5110430;28;20233;-63
2021/12/15 11:27:28;;;;;;;4.43;3.77;;;;;;;6.98;100.00;99726.94;5108906;28;20217;-63
2021/12/15 11:29:56;;;;;;;5.13;4.13;;;;;;;6.93;100.00;99729.72;5110645;28;20210;-63
2021/12/15 11:32:42;;;;;;;4.70;3.83;;;;;;;6.89;100.00;99728.06;5110918;28;20217;-63
2021/12/15 11:35:12;;;;;;;5.10;4.57;;;;;;;6.84;100.00;99723.84;5107816;28;20222;-63
2021/12/15 11:37:48;;;;;;;5.10;4.40;;;;;;;6.84;100.00;99724.69;5110833;28;20296;-63
2021/12/15 11:40:16;;;;;;;4.33;3.77;;;;;;;6.91;100.00;99715.72;5100440;28;20220;-63
2021/12/15 11:42:44;;;;;;;4.87;4.37;;;;;;;6.93;100.00;99703.41;5106037;28;20206;-63
2021/12/15 11:45:14;;;;;;;3.83;3.43;;;;;;;6.94;100.00;99707.78;5105647;28;20250;-63
2021/12/15 11:47:41;;;;;;;4.37;3.20;;;;;;;6.92;100.00;99706.97;5098942;28;20210;-64
2021/12/15 11:50:13;;;;;;;3.93;3.50;;;;;;;6.92;100.00;99701.72;5107524;28;20214;-63
2021/12/15 11:52:42;;;;;;;3.90;3.50;;;;;;;6.90;100.00;99700.88;5103229;28;20221;-63
2021/12/15 11:55:26;;;;;;;3.93;3.63;;;;;;;6.89;100.00;99700.94;5105288;28;20287;-63
2021/12/15 11:57:54;;;;;;;4.30;3.90;;;;;;;6.90;100.00;99698.25;5104701;28;20580;-63
2021/12/15 12:00:24;;;;;;;4.60;3.90;;;;;;;6.87;100.00;99694.84;5110323;28;20221;-64
2021/12/15 12:02:54;;;;;;;3.70;3.40;;;;;;;6.84;100.00;99693.16;5108475;28;20225;-63
2021/12/15 12:05:25;;;;;;;5.43;3.40;;;;;;;6.86;100.00;99694.00;5106965;28;20241;-63
2021/12/15 12:07:55;;;;;;;3.50;2.93;;;;;;;6.90;100.00;99692.97;5104403;28;20214;-63
2021/12/15 12:10:27;;;;;;;3.37;3.07;;;;;;;6.95;100.00;99683.19;5106667;28;20667;-63
2021/12/15 12:13:03;;;;;;;3.63;3.30;;;;;;;6.91;100.00;99686.81;5110242;28;20244;-63
2021/12/15 12:15:33;;;;;;;4.50;4.10;;;;;;;6.95;100.00;99685.81;5109981;28;20221;-63
2021/12/15 12:18:04;;;;;;;4.77;4.30;;;;;;;6.99;100.00;99678.72;5110004;28;20224;-63
2021/12/15 12:20:32;;;;;;;4.57;4.17;;;;;;;6.99;100.00;99692.72;5107779;28;20211;-63
2021/12/15 12:23:02;;;;;;;5.63;4.80;;;;;;;6.91;100.00;99678.94;5113169;28;20215;-63
2021/12/15 12:25:33;;;;;;;4.73;4.33;;;;;;;6.89;100.00;99686.00;5103918;28;20229;-63
2021/12/15 12:28:00;;;;;;;3.50;3.20;;;;;;;6.84;100.00;99690.53;5110912;28;20243;-63